Time;durP1;ratioP1;P1;durP2;ratioP2;P2;SDS_P1;SDS_P2;PMS_P1;PMS_P2;Temp;Humidity;BMP_temperature;BMP_pressure;BME280_temperature;BME280_humidity;BME280_pressure;Samples;Min_cycle;Max_cycle;Signal;HPM_P1;HPM_P2
2023/09/22 04:35:24;;;;;;;;;;;;;;;23.29;47.33;100483.63;108599;1264;67892;31
2023/09/22 05:12:59;;;;;;;;;;;;;;;23.11;48.26;100475.48;109120;1265;67490;-88
2023/09/22 05:18:26;;;;;;;;;;;;;;;23.08;48.21;100481.02;108845;1265;67730;-90
2023/09/22 05:23:47;;;;;;;;;;;;;;;23.06;48.33;100490.21;109245;1265;67543;-92
2023/09/22 05:26:20;;;;;;;;;;;;;;;23.06;48.53;100491.23;109258;1266;66863;-91
2023/09/22 05:29:06;;;;;;;;;;;;;;;23.06;48.62;100493.70;109224;1265;74216;-91
2023/09/22 06:05:01;;;;;;;;;;;;;;;23.42;48.42;100507.36;109062;1266;68143;-89
2023/09/22 06:07:28;;;;;;;;;;;;;;;23.45;48.41;100508.63;109152;1266;67352;-91
2023/09/22 06:18:53;;;;;;;;;;;;;;;23.53;48.35;100514.29;108968;1266;67179;-90
2023/09/22 07:00:22;;;;;;;;;;;;;;;23.82;48.20;100531.77;109042;1265;67599;-90
2023/09/22 09:24:15;;;;;;;;;;;;;;;24.39;47.19;100532.30;109131;1266;71796;-90
2023/09/22 09:26:43;;;;;;;;;;;;;;;24.39;47.15;100527.82;109059;1266;67111;-89
2023/09/22 09:29:09;;;;;;;;;;;;;;;24.39;47.24;100527.67;108970;1269;67548;-90
2023/09/22 09:31:46;;;;;;;;;;;;;;;24.39;47.22;100527.05;108890;1267;67664;31
2023/09/22 09:34:14;;;;;;;;;;;;;;;24.39;47.40;100522.68;108978;1266;68008;-89
2023/09/22 09:36:42;;;;;;;;;;;;;;;24.40;47.38;100520.10;108997;1265;74515;-89
2023/09/22 09:39:11;;;;;;;;;;;;;;;24.41;47.08;100517.77;108934;1266;67656;-89
2023/09/22 09:41:37;;;;;;;;;;;;;;;24.44;47.16;100515.77;108993;1265;67331;-89
2023/09/22 09:44:03;;;;;;;;;;;;;;;24.45;47.09;100512.98;109156;1266;67552;-89
2023/09/22 09:46:30;;;;;;;;;;;;;;;24.48;47.00;100511.77;108930;1266;67377;-88
2023/09/22 09:48:56;;;;;;;;;;;;;;;24.48;46.94;100510.73;108911;1266;67164;-89
2023/09/22 09:51:26;;;;;;;;;;;;;;;24.50;47.05;100510.90;108987;1266;67672;-89
2023/09/22 10:05:40;;;;;;;;;;;;;;;24.55;46.57;100493.40;109045;1265;67791;-91
2023/09/22 10:10:51;;;;;;;;;;;;;;;24.56;46.58;100498.46;108978;1270;67146;-91
2023/09/22 11:39:08;;;;;;;;;;;;;;;24.81;45.41;100441.57;108925;1266;67257;-91
2023/09/22 11:41:34;;;;;;;;;;;;;;;24.82;45.44;100440.38;108926;1266;67746;-89
2023/09/22 11:44:00;;;;;;;;;;;;;;;24.82;45.41;100433.33;108989;1265;67588;-90
2023/09/22 11:46:27;;;;;;;;;;;;;;;24.82;45.24;100429.52;109104;1266;66964;-90
2023/09/22 12:16:37;;;;;;;;;;;;;;;24.83;45.26;100416.28;109139;1266;67673;-89
2023/09/22 12:25:08;;;;;;;;;;;;;;;24.83;45.30;100403.36;108512;1271;559545;-88
2023/09/22 13:22:09;;;;;;;;;;;;;;;24.90;45.14;100378.54;109174;1266;65263;-91
2023/09/22 13:55:09;;;;;;;;;;;;;;;24.93;45.13;100351.01;108619;1267;531270;31
2023/09/22 14:27:47;;;;;;;;;;;;;;;24.93;44.96;100349.24;108862;1265;67604;-88
2023/09/22 16:35:40;;;;;;;;;;;;;;;25.03;42.95;100374.14;109062;1267;67196;-90
2023/09/22 16:38:07;;;;;;;;;;;;;;;25.01;43.04;100377.98;108972;1266;74220;-90
2023/09/22 16:40:42;;;;;;;;;;;;;;;25.00;43.08;100380.56;109012;1266;67340;-90
2023/09/22 17:15:21;;;;;;;;;;;;;;;24.87;43.32;100410.60;109106;1267;66911;-90
2023/09/22 17:26:02;;;;;;;;;;;;;;;24.84;43.39;100419.19;109078;1266;67438;-90
2023/09/22 17:39:53;;;;;;;;;;;;;;;24.79;43.52;100429.52;104848;1266;5552019;-91
2023/09/22 17:53:16;;;;;;;;;;;;;;;24.74;43.57;100446.12;109099;1266;67019;-89
2023/09/22 17:55:45;;;;;;;;;;;;;;;24.73;43.61;100448.30;108930;1266;75277;-89
2023/09/22 17:58:11;;;;;;;;;;;;;;;24.73;43.58;100444.13;108914;1268;67182;-91
2023/09/22 18:00:41;;;;;;;;;;;;;;;24.72;43.57;100447.55;108984;1266;67161;-90
2023/09/22 18:03:11;;;;;;;;;;;;;;;24.71;43.65;100452.85;109038;1270;67089;-89
2023/09/22 18:08:09;;;;;;;;;;;;;;;24.71;43.65;100455.63;108993;1266;74344;-90
2023/09/22 18:10:37;;;;;;;;;;;;;;;24.71;43.76;100457.27;108840;1267;67397;-90
2023/09/22 18:13:03;;;;;;;;;;;;;;;24.71;43.70;100458.65;108910;1267;67279;-90
2023/09/22 18:15:30;;;;;;;;;;;;;;;24.72;43.89;100458.59;108842;1266;67620;-91
2023/09/22 18:17:57;;;;;;;;;;;;;;;24.72;43.81;100460.45;108939;1266;67684;-89
2023/09/22 18:20:23;;;;;;;;;;;;;;;24.72;43.64;100464.70;108926;1265;67585;-90
2023/09/22 18:22:50;;;;;;;;;;;;;;;24.72;43.71;100461.59;108887;1266;67593;-90
2023/09/22 18:25:16;;;;;;;;;;;;;;;24.72;43.72;100463.02;108968;1267;68077;-90
2023/09/22 18:27:43;;;;;;;;;;;;;;;24.73;43.99;100464.09;108940;1267;67994;-89
2023/09/22 18:30:09;;;;;;;;;;;;;;;24.73;43.93;100468.00;109053;1267;67300;-90
2023/09/22 18:32:57;;;;;;;;;;;;;;;24.73;43.61;100469.08;108951;1267;75393;31
2023/09/22 18:35:23;;;;;;;;;;;;;;;24.73;43.59;100471.45;109010;1267;67996;-90
2023/09/22 18:37:50;;;;;;;;;;;;;;;24.73;43.63;100471.29;108973;1267;67002;-90
2023/09/22 18:40:19;;;;;;;;;;;;;;;24.73;43.75;100472.21;108956;1267;66897;-90
2023/09/22 18:42:45;;;;;;;;;;;;;;;24.73;43.88;100470.77;109082;1267;66860;-91
2023/09/22 18:45:12;;;;;;;;;;;;;;;24.73;43.72;100475.14;109068;1267;67219;-90
2023/09/22 18:47:41;;;;;;;;;;;;;;;24.73;43.79;100475.55;108903;1267;67530;-89
2023/09/22 18:50:07;;;;;;;;;;;;;;;24.73;43.91;100472.42;108974;1267;67528;-90
2023/09/22 18:52:34;;;;;;;;;;;;;;;24.73;43.86;100476.23;108905;1267;67597;-90
2023/09/22 18:55:00;;;;;;;;;;;;;;;24.73;43.76;100480.96;108959;1267;67601;-90
2023/09/22 18:57:26;;;;;;;;;;;;;;;24.73;43.79;100479.98;108903;1267;67565;-90
2023/09/22 18:59:52;;;;;;;;;;;;;;;24.72;43.67;100480.70;108930;1267;67541;-90
2023/09/22 19:02:20;;;;;;;;;;;;;;;24.73;43.81;100478.55;108980;1267;67628;-90
2023/09/22 19:04:48;;;;;;;;;;;;;;;24.73;43.94;100481.33;109052;1267;67585;-89
2023/09/22 19:07:16;;;;;;;;;;;;;;;24.72;43.76;100484.27;108909;1267;67584;-89
2023/09/22 19:09:45;;;;;;;;;;;;;;;24.71;43.84;100481.19;108981;1267;74231;-89
2023/09/22 19:12:14;;;;;;;;;;;;;;;24.72;43.81;100479.65;108957;1267;67739;-90
2023/09/22 19:14:40;;;;;;;;;;;;;;;24.72;43.68;100485.20;108888;1267;67530;-89
2023/09/22 19:17:08;;;;;;;;;;;;;;;24.72;43.83;100486.48;108879;1267;67548;-90
2023/09/22 19:19:34;;;;;;;;;;;;;;;24.71;43.91;100483.30;109037;1266;66942;-90
2023/09/22 19:22:00;;;;;;;;;;;;;;;24.71;43.71;100482.73;108914;1265;67563;-90
2023/09/22 19:24:27;;;;;;;;;;;;;;;24.72;43.96;100483.77;108928;1266;67053;-89
2023/09/22 19:26:53;;;;;;;;;;;;;;;24.72;43.87;100482.48;109009;1267;67702;-90
2023/09/22 19:31:51;;;;;;;;;;;;;;;24.71;43.80;100482.89;109060;1265;66914;-89
2023/09/22 19:34:17;;;;;;;;;;;;;;;24.71;43.78;100482.84;108937;1266;68132;-89
2023/09/22 19:36:44;;;;;;;;;;;;;;;24.71;43.87;100485.98;109048;1266;67586;-89
2023/09/22 19:39:10;;;;;;;;;;;;;;;24.71;43.86;100484.08;108912;1271;67612;-89
2023/09/22 19:41:36;;;;;;;;;;;;;;;24.71;43.95;100486.39;108903;1267;67857;-89
2023/09/22 19:44:03;;;;;;;;;;;;;;;24.71;43.91;100484.08;108913;1265;67767;-89
2023/09/22 19:46:32;;;;;;;;;;;;;;;24.71;44.05;100481.24;109097;1265;74573;-90
2023/09/22 19:48:59;;;;;;;;;;;;;;;24.70;43.77;100477.23;108962;1266;66963;-90
2023/09/22 19:51:25;;;;;;;;;;;;;;;24.70;43.93;100474.96;108919;1266;67567;-90
2023/09/22 19:53:51;;;;;;;;;;;;;;;24.70;43.96;100473.36;108891;1266;67692;-91
2023/09/22 19:58:45;;;;;;;;;;;;;;;24.69;43.93;100478.67;109043;1266;67655;-90
2023/09/22 20:01:12;;;;;;;;;;;;;;;24.69;43.90;100482.23;109035;1265;67632;-89
2023/09/22 20:03:37;;;;;;;;;;;;;;;24.69;43.86;100479.09;108886;1266;67848;-89
2023/09/22 20:06:03;;;;;;;;;;;;;;;24.69;43.85;100480.90;108941;1267;67664;-90
2023/09/22 20:08:33;;;;;;;;;;;;;;;24.69;43.75;100480.17;108871;1269;67750;-89
2023/09/22 20:11:01;;;;;;;;;;;;;;;24.69;43.90;100482.89;108873;1273;74267;-89
2023/09/22 20:13:27;;;;;;;;;;;;;;;24.69;44.02;100486.24;108879;1266;67591;-89
2023/09/22 20:15:55;;;;;;;;;;;;;;;24.69;43.76;100485.11;108914;1266;67641;-89
2023/09/22 20:18:21;;;;;;;;;;;;;;;24.69;43.97;100485.53;108959;1266;66982;-89
2023/09/22 20:20:47;;;;;;;;;;;;;;;24.68;43.97;100487.33;109027;1266;67504;-89
2023/09/22 20:25:48;;;;;;;;;;;;;;;24.69;43.87;100484.80;109011;1266;67602;-89
2023/09/22 20:28:16;;;;;;;;;;;;;;;24.68;43.89;100484.45;108963;1265;67628;-89
2023/09/22 20:30:42;;;;;;;;;;;;;;;24.68;43.91;100485.95;108871;1266;67718;-89
2023/09/22 20:33:08;;;;;;;;;;;;;;;24.68;43.84;100485.89;109049;1266;67455;-89
2023/09/22 20:35:35;;;;;;;;;;;;;;;24.68;43.83;100484.45;108904;1266;67668;-90
2023/09/22 20:38:02;;;;;;;;;;;;;;;24.67;44.02;100485.95;108975;1266;67608;-90
2023/09/22 20:40:36;;;;;;;;;;;;;;;24.67;43.90;100485.23;108843;1267;66984;-90
2023/09/22 20:43:04;;;;;;;;;;;;;;;24.67;43.99;100482.52;109040;1267;67504;-90
2023/09/22 20:45:31;;;;;;;;;;;;;;;24.67;43.94;100483.05;109022;1266;66930;-89
2023/09/22 20:47:56;;;;;;;;;;;;;;;24.67;43.85;100484.63;108847;1266;67645;-89
2023/09/22 20:50:26;;;;;;;;;;;;;;;24.67;44.06;100483.35;108936;1267;67690;-89
2023/09/22 20:52:53;;;;;;;;;;;;;;;24.67;43.91;100481.91;108853;1267;67507;-90
2023/09/22 20:55:21;;;;;;;;;;;;;;;24.67;44.00;100484.17;109011;1266;67094;-89
2023/09/22 20:57:49;;;;;;;;;;;;;;;24.66;43.86;100481.71;109018;1265;67521;-89
2023/09/22 21:00:22;;;;;;;;;;;;;;;24.66;43.87;100479.04;109006;1266;82792;-90
2023/09/22 21:02:48;;;;;;;;;;;;;;;24.66;43.91;100477.91;108988;1266;67708;-89
2023/09/22 21:05:19;;;;;;;;;;;;;;;24.66;43.93;100475.13;108998;1266;67841;-88
2023/09/22 21:07:45;;;;;;;;;;;;;;;24.66;44.08;100476.84;108859;1267;67611;-89
2023/09/22 21:10:13;;;;;;;;;;;;;;;24.65;44.08;100477.50;108869;1267;67087;-89
2023/09/22 21:12:40;;;;;;;;;;;;;;;24.65;44.00;100477.05;108992;1266;82958;-90
2023/09/22 21:15:07;;;;;;;;;;;;;;;24.65;43.92;100481.05;109038;1266;67563;-90
2023/09/22 21:17:33;;;;;;;;;;;;;;;24.65;44.17;100477.20;108912;1264;67587;-90
2023/09/22 21:22:30;;;;;;;;;;;;;;;24.65;43.95;100473.91;109122;1266;67148;-91
2023/09/22 21:24:56;;;;;;;;;;;;;;;24.65;43.96;100472.77;108912;1268;67811;-91
2023/09/22 21:27:22;;;;;;;;;;;;;;;24.65;44.02;100468.80;108885;1267;67730;-90
2023/09/22 21:29:48;;;;;;;;;;;;;;;24.65;44.15;100470.11;108806;1268;67266;-90
2023/09/22 21:32:14;;;;;;;;;;;;;;;24.64;43.90;100466.66;108874;1264;67679;-88
2023/09/22 21:34:41;;;;;;;;;;;;;;;24.64;43.99;100469.49;108861;1266;67458;-90
2023/09/22 21:37:07;;;;;;;;;;;;;;;24.64;44.09;100469.49;108897;1267;68153;-90
2023/09/22 21:39:34;;;;;;;;;;;;;;;24.64;44.25;100471.45;108897;1267;67502;-89
2023/09/22 21:42:01;;;;;;;;;;;;;;;24.64;44.30;100465.08;108971;1266;67469;-89
2023/09/22 21:44:27;;;;;;;;;;;;;;;24.65;44.17;100465.27;108923;1266;67683;-90
2023/09/22 21:49:32;;;;;;;;;;;;;;;24.64;44.22;100460.50;108975;1267;74936;-89
2023/09/22 21:51:59;;;;;;;;;;;;;;;24.64;44.25;100463.08;108863;1266;67724;-89
2023/09/22 21:54:25;;;;;;;;;;;;;;;24.64;44.14;100470.53;108977;1266;67703;-89
2023/09/22 21:56:51;;;;;;;;;;;;;;;24.63;44.42;100469.92;108908;1267;67005;-89
2023/09/22 21:59:17;;;;;;;;;;;;;;;24.63;44.41;100469.62;108917;1265;67488;-90
2023/09/22 22:01:43;;;;;;;;;;;;;;;24.63;44.19;100467.09;108959;1266;67546;-89
2023/09/22 22:04:09;;;;;;;;;;;;;;;24.63;44.37;100471.77;108869;1267;67674;-89
2023/09/22 22:06:42;;;;;;;;;;;;;;;24.63;44.20;100467.36;108902;1268;67065;-89
2023/09/22 22:09:15;;;;;;;;;;;;;;;24.63;44.20;100462.38;108912;1269;67578;-89
2023/09/22 22:11:41;;;;;;;;;;;;;;;24.63;44.23;100460.67;108874;1266;74072;-89
2023/09/22 22:14:13;;;;;;;;;;;;;;;24.63;44.17;100458.14;108879;1266;67711;-89
2023/09/22 22:19:15;;;;;;;;;;;;;;;24.63;44.25;100457.42;108984;1265;67546;-90
2023/09/22 22:21:41;;;;;;;;;;;;;;;24.63;44.31;100454.30;108874;1267;67396;-89
2023/09/22 22:24:08;;;;;;;;;;;;;;;24.62;44.30;100447.87;108885;1267;67182;-89
2023/09/22 22:26:34;;;;;;;;;;;;;;;24.63;44.53;100445.81;108899;1266;67658;-89
2023/09/22 22:29:01;;;;;;;;;;;;;;;24.62;44.49;100448.89;108916;1267;68617;-89
2023/09/22 22:31:26;;;;;;;;;;;;;;;24.62;44.48;100455.94;108876;1266;66973;-89
2023/09/22 22:33:53;;;;;;;;;;;;;;;24.62;44.38;100461.20;108888;1266;68207;-89
2023/09/22 22:36:19;;;;;;;;;;;;;;;24.61;44.45;100457.14;108829;1268;68426;-89
2023/09/22 22:38:45;;;;;;;;;;;;;;;24.62;44.51;100458.73;108824;1267;67632;-89
2023/09/22 22:41:12;;;;;;;;;;;;;;;24.62;44.46;100463.14;108882;1266;67782;-89
2023/09/22 22:46:09;;;;;;;;;;;;;;;24.62;44.46;100476.11;108992;1265;67833;-90
2023/09/22 22:48:36;;;;;;;;;;;;;;;24.62;44.49;100475.60;108987;1267;74267;-90
2023/09/22 22:51:02;;;;;;;;;;;;;;;24.62;44.36;100470.45;108950;1266;67973;-90
2023/09/22 22:53:29;;;;;;;;;;;;;;;24.61;44.52;100471.44;108881;1267;67659;-90
2023/09/22 22:55:55;;;;;;;;;;;;;;;24.61;44.42;100471.85;108911;1267;67664;-89
2023/09/22 22:58:22;;;;;;;;;;;;;;;24.61;44.50;100472.11;108905;1267;67539;-89
2023/09/22 23:00:48;;;;;;;;;;;;;;;24.61;44.53;100468.41;108908;1266;67676;-90
2023/09/22 23:03:14;;;;;;;;;;;;;;;24.60;44.69;100463.02;108890;1266;67692;-90
2023/09/22 23:05:43;;;;;;;;;;;;;;;24.61;44.46;100466.04;108937;1267;67966;-89
2023/09/22 23:08:10;;;;;;;;;;;;;;;24.60;44.45;100470.23;108936;1267;67673;-90
2023/09/22 23:10:36;;;;;;;;;;;;;;;24.61;44.59;100473.50;108916;1266;66947;-90
2023/09/22 23:13:09;;;;;;;;;;;;;;;24.60;44.66;100471.41;108893;1266;67719;-90
2023/09/22 23:15:39;;;;;;;;;;;;;;;24.60;44.44;100473.67;108923;1267;66889;-90
2023/09/22 23:18:05;;;;;;;;;;;;;;;24.60;44.50;100475.27;108952;1267;67641;-90
2023/09/22 23:20:37;;;;;;;;;;;;;;;24.60;44.61;100474.96;108914;1266;67696;-90
2023/09/22 23:23:03;;;;;;;;;;;;;;;24.60;44.68;100473.93;108931;1267;67321;-89
2023/09/22 23:25:34;;;;;;;;;;;;;;;24.60;44.67;100471.25;108960;1266;67605;-90
2023/09/22 23:28:03;;;;;;;;;;;;;;;24.60;44.54;100474.09;108889;1267;66931;-90
2023/09/22 23:30:37;;;;;;;;;;;;;;;24.59;44.68;100475.43;109038;1266;67691;-89
2023/09/22 23:33:07;;;;;;;;;;;;;;;24.59;44.69;100479.08;108932;1266;67665;-90
2023/09/22 23:35:33;;;;;;;;;;;;;;;24.60;44.68;100484.53;108974;1266;67611;-89
2023/09/22 23:38:00;;;;;;;;;;;;;;;24.59;44.78;100480.98;108962;1267;74126;-89
2023/09/22 23:40:32;;;;;;;;;;;;;;;24.59;44.80;100480.27;108908;1267;67561;-89
2023/09/22 23:43:00;;;;;;;;;;;;;;;24.59;44.75;100477.80;108873;1267;67575;-89
2023/09/22 23:45:31;;;;;;;;;;;;;;;24.59;44.63;100476.36;108910;1269;67540;-90
2023/09/22 23:48:01;;;;;;;;;;;;;;;24.59;44.79;100475.39;108996;1266;67669;-90
2023/09/22 23:50:28;;;;;;;;;;;;;;;24.59;44.80;100472.59;109022;1266;75413;-90
2023/09/22 23:52:57;;;;;;;;;;;;;;;24.59;44.79;100468.59;109079;1265;67912;-90
2023/09/22 23:57:54;;;;;;;;;;;;;;;24.58;44.83;100464.44;109061;1266;67206;-90
